sensor_id;sensor_type;location;lat;lon;timestamp;pressure;altitude;pressure_sealevel;temperature;humidity
69737;BME280;64476;55.004;73.342;2023-04-20T05:56:08;102204.47;;;7.21;23.45
69737;BME280;64476;55.004;73.342;2023-04-20T05:59:11;102169.63;;;6.93;23.77
69737;BME280;64476;55.004;73.342;2023-04-20T06:02:14;102113.41;;;6.73;23.65
69737;BME280;64476;55.004;73.342;2023-04-20T06:05:17;102128.38;;;6.98;23.58
69737;BME280;64476;55.004;73.342;2023-04-20T06:08:18;102093.75;;;6.95;23.56
69737;BME280;64476;55.004;73.342;2023-04-20T06:11:20;102186.16;;;7.48;22.98
69737;BME280;64476;55.004;73.342;2023-04-20T06:14:22;102146.13;;;7.20;22.83
69737;BME280;64476;55.004;73.342;2023-04-20T06:17:24;102157.56;;;7.45;22.75
69737;BME280;64476;55.004;73.342;2023-04-20T06:20:25;102130.47;;;7.33;22.59
69737;BME280;64476;55.004;73.342;2023-04-20T06:23:27;102150.72;;;7.56;22.88
69737;BME280;64476;55.004;73.342;2023-04-20T06:26:29;102154.81;;;7.73;22.58
69737;BME280;64476;55.004;73.342;2023-04-20T06:29:31;102167.00;;;7.87;22.61
69737;BME280;64476;55.004;73.342;2023-04-20T06:32:33;102111.38;;;7.71;22.82
69737;BME280;64476;55.004;73.342;2023-04-20T06:35:40;101994.88;;;7.14;21.98
69737;BME280;64476;55.004;73.342;2023-04-20T06:38:42;102161.88;;;8.11;21.73
69737;BME280;64476;55.004;73.342;2023-04-20T06:41:44;102061.97;;;7.66;21.98
69737;BME280;64476;55.004;73.342;2023-04-20T06:44:54;102143.53;;;8.37;21.90
69737;BME280;64476;55.004;73.342;2023-04-20T06:47:56;102139.19;;;8.61;21.94
69737;BME280;64476;55.004;73.342;2023-04-20T06:50:58;102125.41;;;8.83;21.46
69737;BME280;64476;55.004;73.342;2023-04-20T06:54:07;102118.34;;;8.96;21.76
69737;BME280;64476;55.004;73.342;2023-04-20T06:58:21;102109.34;;;8.88;21.85
69737;BME280;64476;55.004;73.342;2023-04-20T07:01:29;102126.00;;;9.11;21.70
69737;BME280;64476;55.004;73.342;2023-04-20T07:08:33;102117.41;;;8.85;21.42
69737;BME280;64476;55.004;73.342;2023-04-20T07:11:37;102129.38;;;8.89;21.26
69737;BME280;64476;55.004;73.342;2023-04-20T07:14:43;102120.84;;;8.98;21.89
69737;BME280;64476;55.004;73.342;2023-04-20T07:17:45;102056.03;;;8.76;20.93
69737;BME280;64476;55.004;73.342;2023-04-20T07:20:47;102121.75;;;9.34;21.44
69737;BME280;64476;55.004;73.342;2023-04-20T07:23:49;102066.59;;;8.98;21.54
69737;BME280;64476;55.004;73.342;2023-04-20T07:27:00;102106.25;;;9.42;21.12
69737;BME280;64476;55.004;73.342;2023-04-20T07:30:04;102089.72;;;9.52;21.13
69737;BME280;64476;55.004;73.342;2023-04-20T07:33:09;102047.47;;;9.33;21.09
69737;BME280;64476;55.004;73.342;2023-04-20T07:36:19;102058.44;;;9.38;20.91
69737;BME280;64476;55.004;73.342;2023-04-20T07:39:22;102091.97;;;9.57;21.48
69737;BME280;64476;55.004;73.342;2023-04-20T07:42:28;102085.56;;;9.72;20.79
69737;BME280;64476;55.004;73.342;2023-04-20T07:45:31;102057.50;;;9.62;20.92
69737;BME280;64476;55.004;73.342;2023-04-20T07:48:34;102058.63;;;9.70;20.59
69737;BME280;64476;55.004;73.342;2023-04-20T07:52:07;102090.84;;;9.95;20.15
69737;BME280;64476;55.004;73.342;2023-04-20T07:55:20;102055.25;;;9.68;20.66
69737;BME280;64476;55.004;73.342;2023-04-20T07:58:22;102076.03;;;9.71;20.49
69737;BME280;64476;55.004;73.342;2023-04-20T08:01:29;102071.38;;;9.75;20.88
69737;BME280;64476;55.004;73.342;2023-04-20T08:04:38;102045.72;;;9.78;20.63
69737;BME280;64476;55.004;73.342;2023-04-20T08:07:42;102026.97;;;9.83;20.43
69737;BME280;64476;55.004;73.342;2023-04-20T08:10:44;102077.97;;;10.03;20.73
69737;BME280;64476;55.004;73.342;2023-04-20T08:13:46;102048.94;;;9.93;20.33
69737;BME280;64476;55.004;73.342;2023-04-20T08:16:48;102068.75;;;10.20;20.24
69737;BME280;64476;55.004;73.342;2023-04-20T08:19:57;102045.59;;;10.25;20.29
69737;BME280;64476;55.004;73.342;2023-04-20T08:23:01;102016.38;;;10.07;20.00
69737;BME280;64476;55.004;73.342;2023-04-20T08:26:03;102031.41;;;9.94;19.65
69737;BME280;64476;55.004;73.342;2023-04-20T08:29:10;102046.78;;;9.87;20.05
69737;BME280;64476;55.004;73.342;2023-04-20T08:32:12;102042.28;;;9.78;19.85
69737;BME280;64476;55.004;73.342;2023-04-20T08:35:14;102044.66;;;9.92;19.35
69737;BME280;64476;55.004;73.342;2023-04-20T08:38:15;102041.53;;;9.98;19.23
69737;BME280;64476;55.004;73.342;2023-04-20T08:41:24;102047.53;;;9.89;19.16
69737;BME280;64476;55.004;73.342;2023-04-20T08:44:26;102043.47;;;9.74;19.02
69737;BME280;64476;55.004;73.342;2023-04-20T08:47:30;102031.53;;;9.81;18.92
69737;BME280;64476;55.004;73.342;2023-04-20T08:50:34;102002.75;;;9.68;19.46
69737;BME280;64476;55.004;73.342;2023-04-20T08:53:37;102016.59;;;9.93;19.21
69737;BME280;64476;55.004;73.342;2023-04-20T08:56:45;102026.38;;;10.13;19.25
69737;BME280;64476;55.004;73.342;2023-04-20T08:59:47;102037.59;;;10.15;18.89
69737;BME280;64476;55.004;73.342;2023-04-20T09:02:53;102027.56;;;10.20;19.26
69737;BME280;64476;55.004;73.342;2023-04-20T09:09:29;102009.50;;;10.27;19.56
69737;BME280;64476;55.004;73.342;2023-04-20T09:12:40;101976.13;;;10.07;19.63
69737;BME280;64476;55.004;73.342;2023-04-20T09:18:54;101998.81;;;10.08;20.31
69737;BME280;64476;55.004;73.342;2023-04-20T09:22:00;102005.50;;;10.12;20.24
69737;BME280;64476;55.004;73.342;2023-04-20T09:25:15;101989.88;;;10.10;20.36
69737;BME280;64476;55.004;73.342;2023-04-20T09:28:52;101972.16;;;10.12;20.26
69737;BME280;64476;55.004;73.342;2023-04-20T09:32:26;101985.06;;;10.15;19.87
69737;BME280;64476;55.004;73.342;2023-04-20T09:36:11;101994.84;;;10.13;19.97
69737;BME280;64476;55.004;73.342;2023-04-20T09:39:16;101971.59;;;9.97;19.93
69737;BME280;64476;55.004;73.342;2023-04-20T09:42:19;101970.44;;;9.79;19.80
69737;BME280;64476;55.004;73.342;2023-04-20T09:45:21;101991.66;;;9.87;20.09
69737;BME280;64476;55.004;73.342;2023-04-20T09:48:23;101980.94;;;9.68;20.05
69737;BME280;64476;55.004;73.342;2023-04-20T09:51:26;101950.19;;;9.59;20.32
69737;BME280;64476;55.004;73.342;2023-04-20T09:54:28;101982.56;;;10.02;19.92
69737;BME280;64476;55.004;73.342;2023-04-20T09:57:31;101982.31;;;10.17;20.12
69737;BME280;64476;55.004;73.342;2023-04-20T10:00:37;101961.03;;;10.20;19.86
69737;BME280;64476;55.004;73.342;2023-04-20T10:04:12;101969.03;;;10.30;20.09
69737;BME280;64476;55.004;73.342;2023-04-20T10:07:45;101964.00;;;10.38;20.12
69737;BME280;64476;55.004;73.342;2023-04-20T10:10:49;101973.72;;;10.47;19.88
69737;BME280;64476;55.004;73.342;2023-04-20T10:13:51;101945.16;;;10.33;19.93
69737;BME280;64476;55.004;73.342;2023-04-20T10:20:29;101958.16;;;10.34;19.74
69737;BME280;64476;55.004;73.342;2023-04-20T10:24:07;101952.81;;;10.13;19.96
69737;BME280;64476;55.004;73.342;2023-04-20T10:27:18;101910.91;;;9.68;20.46
69737;BME280;64476;55.004;73.342;2023-04-20T10:30:21;101944.63;;;10.07;20.40
69737;BME280;64476;55.004;73.342;2023-04-20T10:33:23;101939.34;;;10.18;20.25
69737;BME280;64476;55.004;73.342;2023-04-20T10:36:30;101878.41;;;9.92;19.96
69737;BME280;64476;55.004;73.342;2023-04-20T10:39:46;101935.59;;;10.20;19.62
69737;BME280;64476;55.004;73.342;2023-04-20T10:42:48;101925.69;;;10.24;19.57
69737;BME280;64476;55.004;73.342;2023-04-20T10:45:57;101922.09;;;10.36;20.01
69737;BME280;64476;55.004;73.342;2023-04-20T10:49:00;101890.22;;;10.30;20.17
69737;BME280;64476;55.004;73.342;2023-04-20T10:52:02;101930.53;;;10.72;20.10
69737;BME280;64476;55.004;73.342;2023-04-20T10:55:05;101916.50;;;10.83;20.16
69737;BME280;64476;55.004;73.342;2023-04-20T10:58:07;101862.00;;;10.64;20.34
69737;BME280;64476;55.004;73.342;2023-04-20T11:01:09;101936.63;;;11.14;19.94
69737;BME280;64476;55.004;73.342;2023-04-20T11:04:11;101929.81;;;11.42;19.97
69737;BME280;64476;55.004;73.342;2023-04-20T11:07:13;101923.75;;;11.73;19.57
69737;BME280;64476;55.004;73.342;2023-04-20T11:10:19;101920.38;;;12.21;19.03
69737;BME280;64476;55.004;73.342;2023-04-20T11:13:22;101891.94;;;12.53;19.16
69737;BME280;64476;55.004;73.342;2023-04-20T11:16:26;101906.13;;;13.09;18.79
69737;BME280;64476;55.004;73.342;2023-04-20T11:19:35;101905.28;;;13.46;17.50
69737;BME280;64476;55.004;73.342;2023-04-20T11:22:55;101877.94;;;13.65;17.41
69737;BME280;64476;55.004;73.342;2023-04-20T11:26:00;101903.69;;;14.26;17.67
69737;BME280;64476;55.004;73.342;2023-04-20T11:29:02;101894.50;;;14.74;17.23
69737;BME280;64476;55.004;73.342;2023-04-20T11:35:40;101862.31;;;15.13;16.51
69737;BME280;64476;55.004;73.342;2023-04-20T11:42:34;101866.47;;;14.63;16.83
69737;BME280;64476;55.004;73.342;2023-04-20T11:46:19;101887.59;;;13.74;17.59
69737;BME280;64476;55.004;73.342;2023-04-20T11:49:22;101858.56;;;12.91;17.63
69737;BME280;64476;55.004;73.342;2023-04-20T11:52:25;101884.16;;;12.32;18.41
69737;BME280;64476;55.004;73.342;2023-04-20T11:55:27;101862.81;;;11.56;18.42
69737;BME280;64476;55.004;73.342;2023-04-20T11:58:28;101819.22;;;10.83;18.76
69737;BME280;64476;55.004;73.342;2023-04-20T12:01:37;101770.38;;;10.17;19.61
69737;BME280;64476;55.004;73.342;2023-04-20T12:04:39;101884.28;;;10.48;19.05
69737;BME280;64476;55.004;73.342;2023-04-20T12:07:43;101871.81;;;9.97;19.75
69737;BME280;64476;55.004;73.342;2023-04-20T12:10:48;101851.53;;;9.45;20.09
69737;BME280;64476;55.004;73.342;2023-04-20T12:13:50;101885.06;;;9.30;19.83
69737;BME280;64476;55.004;73.342;2023-04-20T12:20:32;101871.88;;;8.85;20.37
69737;BME280;64476;55.004;73.342;2023-04-20T12:23:34;101836.91;;;8.51;20.40
69737;BME280;64476;55.004;73.342;2023-04-20T12:26:39;101843.66;;;8.42;21.56
69737;BME280;64476;55.004;73.342;2023-04-20T12:29:41;101844.38;;;8.44;20.92
69737;BME280;64476;55.004;73.342;2023-04-20T12:32:44;101858.59;;;8.53;21.48
69737;BME280;64476;55.004;73.342;2023-04-20T12:35:50;101875.88;;;8.31;21.61
69737;BME280;64476;55.004;73.342;2023-04-20T12:39:24;101861.53;;;8.13;22.09
69737;BME280;64476;55.004;73.342;2023-04-20T12:42:26;101872.22;;;8.10;21.34
69737;BME280;64476;55.004;73.342;2023-04-20T12:45:28;101821.28;;;7.66;21.74
69737;BME280;64476;55.004;73.342;2023-04-20T12:48:34;101870.31;;;7.88;21.56
69737;BME280;64476;55.004;73.342;2023-04-20T12:52:09;101864.09;;;7.65;21.55
69737;BME280;64476;55.004;73.342;2023-04-20T12:55:11;101846.97;;;7.48;22.14
69737;BME280;64476;55.004;73.342;2023-04-20T12:58:19;101858.38;;;7.47;22.22
69737;BME280;64476;55.004;73.342;2023-04-20T13:01:21;101863.19;;;7.41;22.26
69737;BME280;64476;55.004;73.342;2023-04-20T13:04:23;101849.53;;;7.24;22.63
69737;BME280;64476;55.004;73.342;2023-04-20T13:07:24;101777.03;;;6.77;22.83
69737;BME280;64476;55.004;73.342;2023-04-20T13:10:29;101849.97;;;7.18;22.61
69737;BME280;64476;55.004;73.342;2023-04-20T13:13:30;101848.50;;;7.14;22.58
69737;BME280;64476;55.004;73.342;2023-04-20T13:16:42;101832.94;;;7.00;22.79
69737;BME280;64476;55.004;73.342;2023-04-20T13:19:48;101798.66;;;6.66;22.60
69737;BME280;64476;55.004;73.342;2023-04-20T13:22:50;101816.53;;;6.72;23.00
69737;BME280;64476;55.004;73.342;2023-04-20T13:26:02;101849.47;;;6.87;23.16
69737;BME280;64476;55.004;73.342;2023-04-20T13:29:35;101846.84;;;6.87;23.12
69737;BME280;64476;55.004;73.342;2023-04-20T13:32:37;101787.69;;;6.48;22.63
69737;BME280;64476;55.004;73.342;2023-04-20T13:35:49;101848.31;;;6.79;22.40
69737;BME280;64476;55.004;73.342;2023-04-20T13:38:51;101797.81;;;6.53;23.20
69737;BME280;64476;55.004;73.342;2023-04-20T13:41:53;101828.34;;;6.65;23.46
69737;BME280;64476;55.004;73.342;2023-04-20T13:44:59;101809.53;;;6.47;23.33
69737;BME280;64476;55.004;73.342;2023-04-20T13:48:12;101760.06;;;6.19;23.79
69737;BME280;64476;55.004;73.342;2023-04-20T13:51:19;101830.28;;;6.49;23.92
69737;BME280;64476;55.004;73.342;2023-04-20T13:54:21;101835.63;;;6.47;23.78
69737;BME280;64476;55.004;73.342;2023-04-20T13:57:23;101836.25;;;6.51;24.44
69737;BME280;64476;55.004;73.342;2023-04-20T14:00:33;101830.09;;;6.39;24.52
69737;BME280;64476;55.004;73.342;2023-04-20T14:03:34;101810.00;;;6.27;24.66
69737;BME280;64476;55.004;73.342;2023-04-20T14:06:37;101827.34;;;6.28;24.36
69737;BME280;64476;55.004;73.342;2023-04-20T14:09:44;101828.25;;;6.27;24.62
69737;BME280;64476;55.004;73.342;2023-04-20T14:12:46;101828.75;;;6.19;24.54
69737;BME280;64476;55.004;73.342;2023-04-20T14:15:48;101832.91;;;6.09;24.56
69737;BME280;64476;55.004;73.342;2023-04-20T14:18:51;101845.00;;;6.10;25.11
69737;BME280;64476;55.004;73.342;2023-04-20T14:22:02;101813.50;;;5.86;24.96
69737;BME280;64476;55.004;73.342;2023-04-20T14:25:14;101836.50;;;5.93;24.79
69737;BME280;64476;55.004;73.342;2023-04-20T14:28:18;101783.69;;;5.63;24.83
69737;BME280;64476;55.004;73.342;2023-04-20T14:31:21;101831.94;;;5.83;24.79
69737;BME280;64476;55.004;73.342;2023-04-20T14:34:23;101846.19;;;5.91;24.71
69737;BME280;64476;55.004;73.342;2023-04-20T14:37:25;101818.75;;;5.72;24.51
69737;BME280;64476;55.004;73.342;2023-04-20T14:40:37;101837.09;;;5.84;25.21
69737;BME280;64476;55.004;73.342;2023-04-20T14:43:40;101786.34;;;5.49;24.69
69737;BME280;64476;55.004;73.342;2023-04-20T14:46:42;101843.53;;;5.79;24.81
69737;BME280;64476;55.004;73.342;2023-04-20T14:49:44;101775.09;;;5.34;24.42
69737;BME280;64476;55.004;73.342;2023-04-20T14:52:47;101839.28;;;5.63;24.80
69737;BME280;64476;55.004;73.342;2023-04-20T14:55:59;101789.84;;;5.21;24.83
69737;BME280;64476;55.004;73.342;2023-04-20T14:59:00;101845.81;;;5.56;25.02
69737;BME280;64476;55.004;73.342;2023-04-20T15:02:02;101844.44;;;5.51;24.81
69737;BME280;64476;55.004;73.342;2023-04-20T15:05:07;101784.53;;;5.08;24.91
69737;BME280;64476;55.004;73.342;2023-04-20T15:08:09;101820.44;;;5.31;24.71
69737;BME280;64476;55.004;73.342;2023-04-20T15:11:19;101800.94;;;5.10;24.92
69737;BME280;64476;55.004;73.342;2023-04-20T15:14:26;101821.13;;;5.21;24.96
69737;BME280;64476;55.004;73.342;2023-04-20T15:17:28;101797.56;;;5.08;25.13
69737;BME280;64476;55.004;73.342;2023-04-20T15:20:29;101827.81;;;5.25;25.03
69737;BME280;64476;55.004;73.342;2023-04-20T15:23:36;101816.16;;;5.16;25.24
69737;BME280;64476;55.004;73.342;2023-04-20T15:26:37;101821.19;;;5.19;25.19
69737;BME280;64476;55.004;73.342;2023-04-20T15:29:43;101788.75;;;4.96;25.44
69737;BME280;64476;55.004;73.342;2023-04-20T15:32:55;101830.88;;;5.17;25.52
69737;BME280;64476;55.004;73.342;2023-04-20T15:35:57;101815.44;;;5.00;25.41
69737;BME280;64476;55.004;73.342;2023-04-20T15:39:09;101813.47;;;5.03;25.87
69737;BME280;64476;55.004;73.342;2023-04-20T15:42:11;101780.09;;;4.81;25.56
69737;BME280;64476;55.004;73.342;2023-04-20T15:45:13;101793.19;;;4.80;25.75
69737;BME280;64476;55.004;73.342;2023-04-20T15:48:20;101834.50;;;5.00;26.07
69737;BME280;64476;55.004;73.342;2023-04-20T15:51:26;101820.09;;;4.80;26.19
69737;BME280;64476;55.004;73.342;2023-04-20T15:54:28;101801.19;;;4.62;25.79
69737;BME280;64476;55.004;73.342;2023-04-20T15:57:30;101803.97;;;4.59;26.50
69737;BME280;64476;55.004;73.342;2023-04-20T16:00:32;101815.97;;;4.62;26.65
69737;BME280;64476;55.004;73.342;2023-04-20T16:03:33;101737.00;;;4.17;26.24
69737;BME280;64476;55.004;73.342;2023-04-20T16:06:35;101819.00;;;4.54;26.93
69737;BME280;64476;55.004;73.342;2023-04-20T16:09:42;101819.88;;;4.55;26.79
69737;BME280;64476;55.004;73.342;2023-04-20T16:12:44;101811.63;;;4.46;26.28
69737;BME280;64476;55.004;73.342;2023-04-20T16:15:46;101817.44;;;4.52;25.93
69737;BME280;64476;55.004;73.342;2023-04-20T16:18:47;101820.13;;;4.50;26.70
69737;BME280;64476;55.004;73.342;2023-04-20T16:21:51;101810.97;;;4.43;26.27
69737;BME280;64476;55.004;73.342;2023-04-20T16:24:53;101752.50;;;4.04;26.77
69737;BME280;64476;55.004;73.342;2023-04-20T16:28:05;101780.84;;;4.09;26.56
69737;BME280;64476;55.004;73.342;2023-04-20T16:31:10;101813.44;;;4.30;26.66
69737;BME280;64476;55.004;73.342;2023-04-20T16:34:12;101777.69;;;4.04;26.47
69737;BME280;64476;55.004;73.342;2023-04-20T16:37:24;101786.06;;;4.09;26.29
69737;BME280;64476;55.004;73.342;2023-04-20T16:40:26;101801.50;;;4.12;26.06
69737;BME280;64476;55.004;73.342;2023-04-20T16:43:28;101795.50;;;3.95;26.94
69737;BME280;64476;55.004;73.342;2023-04-20T16:46:30;101813.16;;;4.05;26.69
69737;BME280;64476;55.004;73.342;2023-04-20T16:49:32;101789.03;;;3.87;26.59
69737;BME280;64476;55.004;73.342;2023-04-20T16:52:34;101807.34;;;3.85;26.55
69737;BME280;64476;55.004;73.342;2023-04-20T16:55:36;101795.75;;;3.75;26.46
69737;BME280;64476;55.004;73.342;2023-04-20T16:58:39;101804.56;;;3.72;26.58
69737;BME280;64476;55.004;73.342;2023-04-20T17:02:16;101772.97;;;3.48;27.30
69737;BME280;64476;55.004;73.342;2023-04-20T17:05:18;101734.84;;;3.17;27.13
69737;BME280;64476;55.004;73.342;2023-04-20T17:08:29;101783.63;;;3.44;27.25
69737;BME280;64476;55.004;73.342;2023-04-20T17:11:31;101741.88;;;3.15;27.53
69737;BME280;64476;55.004;73.342;2023-04-20T17:14:42;101801.81;;;3.44;27.25
69737;BME280;64476;55.004;73.342;2023-04-20T17:17:43;101788.38;;;3.36;26.92
69737;BME280;64476;55.004;73.342;2023-04-20T17:20:45;101793.41;;;3.39;26.96
69737;BME280;64476;55.004;73.342;2023-04-20T17:23:48;101795.50;;;3.32;26.89
69737;BME280;64476;55.004;73.342;2023-04-20T17:26:49;101801.78;;;3.28;26.69
69737;BME280;64476;55.004;73.342;2023-04-20T17:29:52;101735.81;;;2.83;26.84
69737;BME280;64476;55.004;73.342;2023-04-20T17:33:39;101759.94;;;2.85;26.87
69737;BME280;64476;55.004;73.342;2023-04-20T17:36:45;101798.91;;;3.01;26.94
69737;BME280;64476;55.004;73.342;2023-04-20T17:39:57;101789.19;;;2.89;27.37
69737;BME280;64476;55.004;73.342;2023-04-20T17:42:59;101796.19;;;2.87;27.60
69737;BME280;64476;55.004;73.342;2023-04-20T17:46:01;101764.09;;;2.54;28.66
69737;BME280;64476;55.004;73.342;2023-04-20T17:49:02;101787.00;;;2.64;28.81
69737;BME280;64476;55.004;73.342;2023-04-20T17:52:04;101739.66;;;2.25;29.00
69737;BME280;64476;55.004;73.342;2023-04-20T17:55:06;101745.53;;;2.12;29.61
69737;BME280;64476;55.004;73.342;2023-04-20T17:58:11;101789.22;;;2.37;30.15
69737;BME280;64476;55.004;73.342;2023-04-20T18:01:19;101802.56;;;2.29;30.60
69737;BME280;64476;55.004;73.342;2023-04-20T18:04:31;101787.72;;;2.15;30.77
69737;BME280;64476;55.004;73.342;2023-04-20T18:07:33;101795.69;;;2.11;31.13
69737;BME280;64476;55.004;73.342;2023-04-20T18:10:35;101755.00;;;1.76;31.96
69737;BME280;64476;55.004;73.342;2023-04-20T18:13:37;101735.16;;;1.58;32.24
69737;BME280;64476;55.004;73.342;2023-04-20T18:16:39;101742.31;;;1.53;32.32
69737;BME280;64476;55.004;73.342;2023-04-20T18:19:41;101765.97;;;1.64;32.69
69737;BME280;64476;55.004;73.342;2023-04-20T18:22:42;101802.25;;;1.81;32.95
69737;BME280;64476;55.004;73.342;2023-04-20T18:25:46;101734.25;;;1.40;33.07
69737;BME280;64476;55.004;73.342;2023-04-20T18:28:48;101744.72;;;1.39;33.49
69737;BME280;64476;55.004;73.342;2023-04-20T18:31:54;101791.03;;;1.64;33.81
69737;BME280;64476;55.004;73.342;2023-04-20T18:34:59;101752.75;;;1.32;34.22
69737;BME280;64476;55.004;73.342;2023-04-20T18:38:01;101800.75;;;1.58;33.63
69737;BME280;64476;55.004;73.342;2023-04-20T18:41:08;101793.44;;;1.49;34.00
69737;BME280;64476;55.004;73.342;2023-04-20T18:44:10;101784.47;;;1.38;34.83
69737;BME280;64476;55.004;73.342;2023-04-20T18:47:16;101787.13;;;1.36;34.42
69737;BME280;64476;55.004;73.342;2023-04-20T18:50:24;101729.03;;;1.04;35.00
69737;BME280;64476;55.004;73.342;2023-04-20T18:53:26;101779.78;;;1.27;34.64
69737;BME280;64476;55.004;73.342;2023-04-20T18:56:27;101697.56;;;0.75;34.60
69737;BME280;64476;55.004;73.342;2023-04-20T18:59:29;101737.81;;;1.01;35.09
69737;BME280;64476;55.004;73.342;2023-04-20T19:02:31;101780.97;;;1.20;35.02
69737;BME280;64476;55.004;73.342;2023-04-20T19:05:32;101727.44;;;0.82;34.86
69737;BME280;64476;55.004;73.342;2023-04-20T19:08:34;101712.38;;;0.72;35.53
69737;BME280;64476;55.004;73.342;2023-04-20T19:11:36;101762.84;;;1.01;35.05
69737;BME280;64476;55.004;73.342;2023-04-20T19:14:48;101785.59;;;1.13;35.26
69737;BME280;64476;55.004;73.342;2023-04-20T19:18:00;101778.09;;;1.07;35.24
69737;BME280;64476;55.004;73.342;2023-04-20T19:21:02;101741.97;;;0.85;35.21
69737;BME280;64476;55.004;73.342;2023-04-20T19:24:04;101779.41;;;0.97;35.45
69737;BME280;64476;55.004;73.342;2023-04-20T19:27:43;101791.50;;;0.96;35.74
69737;BME280;64476;55.004;73.342;2023-04-20T19:30:45;101787.88;;;1.00;35.81
69737;BME280;64476;55.004;73.342;2023-04-20T19:34:19;101787.94;;;0.99;36.43
69737;BME280;64476;55.004;73.342;2023-04-20T19:37:22;101773.72;;;0.89;36.16
69737;BME280;64476;55.004;73.342;2023-04-20T19:40:23;101718.38;;;0.53;35.91
69737;BME280;64476;55.004;73.342;2023-04-20T19:43:26;101787.44;;;0.91;36.28
69737;BME280;64476;55.004;73.342;2023-04-20T19:46:32;101761.59;;;0.70;36.71
69737;BME280;64476;55.004;73.342;2023-04-20T19:49:34;101735.63;;;0.53;36.50
69737;BME280;64476;55.004;73.342;2023-04-20T19:52:36;101780.16;;;0.80;36.17
69737;BME280;64476;55.004;73.342;2023-04-20T19:55:37;101785.19;;;0.83;36.09
69737;BME280;64476;55.004;73.342;2023-04-20T19:58:39;101774.97;;;0.80;36.14
69737;BME280;64476;55.004;73.342;2023-04-20T20:01:43;101771.59;;;0.78;35.99
69737;BME280;64476;55.004;73.342;2023-04-20T20:04:45;101777.34;;;0.84;36.31
69737;BME280;64476;55.004;73.342;2023-04-20T20:07:56;101780.03;;;0.83;36.40
69737;BME280;64476;55.004;73.342;2023-04-20T20:11:08;101768.31;;;0.74;36.31
69737;BME280;64476;55.004;73.342;2023-04-20T20:14:09;101733.81;;;0.55;36.43
69737;BME280;64476;55.004;73.342;2023-04-20T20:17:11;101720.50;;;0.44;36.38
69737;BME280;64476;55.004;73.342;2023-04-20T20:20:21;101766.63;;;0.73;36.04
69737;BME280;64476;55.004;73.342;2023-04-20T20:23:33;101749.78;;;0.65;36.07
69737;BME280;64476;55.004;73.342;2023-04-20T20:27:06;101763.47;;;0.67;36.29
69737;BME280;64476;55.004;73.342;2023-04-20T20:30:08;101736.72;;;0.47;36.06
69737;BME280;64476;55.004;73.342;2023-04-20T20:33:23;101685.63;;;0.13;36.37
69737;BME280;64476;55.004;73.342;2023-04-20T20:36:24;101757.22;;;0.52;36.15
69737;BME280;64476;55.004;73.342;2023-04-20T20:39:39;101746.56;;;0.39;36.29
69737;BME280;64476;55.004;73.342;2023-04-20T20:42:46;101681.13;;;-0.02;36.56
69737;BME280;64476;55.004;73.342;2023-04-20T20:45:49;101757.41;;;0.27;35.95
69737;BME280;64476;55.004;73.342;2023-04-20T20:48:50;101745.38;;;0.26;36.40
69737;BME280;64476;55.004;73.342;2023-04-20T20:51:54;101719.91;;;-0.04;36.68
69737;BME280;64476;55.004;73.342;2023-04-20T20:54:56;101740.22;;;0.05;36.75
69737;BME280;64476;55.004;73.342;2023-04-20T20:57:57;101715.00;;;-0.10;36.46
69737;BME280;64476;55.004;73.342;2023-04-20T21:00:59;101682.44;;;-0.34;36.44
69737;BME280;64476;55.004;73.342;2023-04-20T21:04:05;101701.81;;;-0.24;36.43
69737;BME280;64476;55.004;73.342;2023-04-20T21:07:17;101732.78;;;-0.02;36.62
69737;BME280;64476;55.004;73.342;2023-04-20T21:10:18;101729.72;;;-0.12;36.82
69737;BME280;64476;55.004;73.342;2023-04-20T21:13:31;101718.41;;;-0.30;36.50
69737;BME280;64476;55.004;73.342;2023-04-20T21:16:33;101755.69;;;-0.15;36.93
69737;BME280;64476;55.004;73.342;2023-04-20T21:19:35;101748.44;;;-0.27;37.05
69737;BME280;64476;55.004;73.342;2023-04-20T21:22:43;101743.81;;;-0.41;37.09
69737;BME280;64476;55.004;73.342;2023-04-20T21:25:45;101643.94;;;-1.06;37.28
69737;BME280;64476;55.004;73.342;2023-04-20T21:28:46;101748.25;;;-0.45;37.44
69737;BME280;64476;55.004;73.342;2023-04-20T21:31:48;101627.38;;;-1.23;37.37
69737;BME280;64476;55.004;73.342;2023-04-20T21:34:52;101738.16;;;-0.51;37.15
69737;BME280;64476;55.004;73.342;2023-04-20T21:37:59;101745.25;;;-0.56;37.60
69737;BME280;64476;55.004;73.342;2023-04-20T21:41:01;101722.72;;;-0.74;37.45
69737;BME280;64476;55.004;73.342;2023-04-20T21:44:03;101734.50;;;-0.67;37.80
69737;BME280;64476;55.004;73.342;2023-04-20T21:47:05;101686.78;;;-1.02;37.75
69737;BME280;64476;55.004;73.342;2023-04-20T21:50:17;101747.81;;;-0.78;37.58
69737;BME280;64476;55.004;73.342;2023-04-20T21:53:29;101676.31;;;-1.21;38.10
69737;BME280;64476;55.004;73.342;2023-04-20T21:56:30;101745.41;;;-0.82;37.75
69737;BME280;64476;55.004;73.342;2023-04-20T21:59:32;101726.16;;;-0.97;37.88
69737;BME280;64476;55.004;73.342;2023-04-20T22:02:34;101736.25;;;-0.91;38.02
69737;BME280;64476;55.004;73.342;2023-04-20T22:05:35;101734.03;;;-1.00;38.08
69737;BME280;64476;55.004;73.342;2023-04-20T22:08:37;101718.81;;;-1.08;38.28
69737;BME280;64476;55.004;73.342;2023-04-20T22:11:40;101730.72;;;-1.04;38.33
69737;BME280;64476;55.004;73.342;2023-04-20T22:14:41;101680.09;;;-1.30;38.33
69737;BME280;64476;55.004;73.342;2023-04-20T22:17:45;101721.50;;;-1.11;38.47
69737;BME280;64476;55.004;73.342;2023-04-20T22:20:48;101673.75;;;-1.45;38.53
69737;BME280;64476;55.004;73.342;2023-04-20T22:23:49;101667.13;;;-1.52;38.69
69737;BME280;64476;55.004;73.342;2023-04-20T22:27:01;101710.84;;;-1.25;38.67
69737;BME280;64476;55.004;73.342;2023-04-20T22:30:07;101737.06;;;-1.13;38.71